sensor_id;sensor_type;location;lat;lon;timestamp;temperature;humidity
21627;DHT22;10975;47.872;12.972;2023-04-02T00:07:56;9.00;99.90
21627;DHT22;10975;47.872;12.972;2023-04-02T00:13:19;9.00;99.90
21627;DHT22;10975;47.872;12.972;2023-04-02T00:15:48;9.00;99.90
21627;DHT22;10975;47.872;12.972;2023-04-02T00:18:16;9.00;99.90
21627;DHT22;10975;47.872;12.972;2023-04-02T00:23:29;9.00;99.90
21627;DHT22;10975;47.872;12.972;2023-04-02T00:25:56;8.90;99.90
21627;DHT22;10975;47.872;12.972;2023-04-02T00:28:23;8.90;99.90
21627;DHT22;10975;47.872;12.972;2023-04-02T00:30:54;8.90;99.90
21627;DHT22;10975;47.872;12.972;2023-04-02T00:33:22;9.00;99.90
21627;DHT22;10975;47.872;12.972;2023-04-02T00:35:50;9.00;99.90
21627;DHT22;10975;47.872;12.972;2023-04-02T00:38:25;9.00;99.90
21627;DHT22;10975;47.872;12.972;2023-04-02T00:40:55;9.00;99.90
21627;DHT22;10975;47.872;12.972;2023-04-02T00:43:23;9.00;99.90
21627;DHT22;10975;47.872;12.972;2023-04-02T00:45:53;9.00;99.90
21627;DHT22;10975;47.872;12.972;2023-04-02T00:48:40;9.00;99.90
21627;DHT22;10975;47.872;12.972;2023-04-02T00:51:14;9.30;99.90
21627;DHT22;10975;47.872;12.972;2023-04-02T00:53:44;9.40;99.90
21627;DHT22;10975;47.872;12.972;2023-04-02T00:56:13;9.40;99.90
21627;DHT22;10975;47.872;12.972;2023-04-02T00:58:42;9.50;99.90
21627;DHT22;10975;47.872;12.972;2023-04-02T01:01:20;9.60;99.90
21627;DHT22;10975;47.872;12.972;2023-04-02T01:04:24;9.70;99.90
21627;DHT22;10975;47.872;12.972;2023-04-02T01:06:38;9.60;99.90
21627;DHT22;10975;47.872;12.972;2023-04-02T01:09:17;9.70;99.90
21627;DHT22;10975;47.872;12.972;2023-04-02T01:11:51;9.70;99.90
21627;DHT22;10975;47.872;12.972;2023-04-02T01:16:57;9.60;99.90
21627;DHT22;10975;47.872;12.972;2023-04-02T01:22:08;9.50;99.90
21627;DHT22;10975;47.872;12.972;2023-04-02T01:24:41;9.50;99.90
21627;DHT22;10975;47.872;12.972;2023-04-02T01:27:17;9.50;99.90
21627;DHT22;10975;47.872;12.972;2023-04-02T01:29:47;9.60;99.90
21627;DHT22;10975;47.872;12.972;2023-04-02T01:32:16;9.50;99.90
21627;DHT22;10975;47.872;12.972;2023-04-02T01:34:44;9.50;99.90
21627;DHT22;10975;47.872;12.972;2023-04-02T01:42:37;9.50;99.90
21627;DHT22;10975;47.872;12.972;2023-04-02T01:45:08;9.60;99.90
21627;DHT22;10975;47.872;12.972;2023-04-02T01:47:35;9.50;99.90
21627;DHT22;10975;47.872;12.972;2023-04-02T01:52:45;9.50;99.90
21627;DHT22;10975;47.872;12.972;2023-04-02T01:55:13;9.50;99.90
21627;DHT22;10975;47.872;12.972;2023-04-02T01:57:45;9.50;99.90
21627;DHT22;10975;47.872;12.972;2023-04-02T02:00:14;9.40;99.90
21627;DHT22;10975;47.872;12.972;2023-04-02T02:02:42;9.40;99.90
21627;DHT22;10975;47.872;12.972;2023-04-02T02:05:12;9.40;99.90
21627;DHT22;10975;47.872;12.972;2023-04-02T02:07:39;9.40;99.90
21627;DHT22;10975;47.872;12.972;2023-04-02T02:10:14;9.40;99.90
21627;DHT22;10975;47.872;12.972;2023-04-02T02:12:42;9.40;99.90
21627;DHT22;10975;47.872;12.972;2023-04-02T02:15:15;9.40;99.90
21627;DHT22;10975;47.872;12.972;2023-04-02T02:17:42;9.40;99.90
21627;DHT22;10975;47.872;12.972;2023-04-02T02:20:11;9.40;99.90
21627;DHT22;10975;47.872;12.972;2023-04-02T02:22:39;9.40;99.90
21627;DHT22;10975;47.872;12.972;2023-04-02T02:25:13;9.30;99.90
21627;DHT22;10975;47.872;12.972;2023-04-02T02:27:42;9.30;99.90
21627;DHT22;10975;47.872;12.972;2023-04-02T02:30:15;9.30;99.90
21627;DHT22;10975;47.872;12.972;2023-04-02T02:33:02;9.30;99.90
21627;DHT22;10975;47.872;12.972;2023-04-02T02:35:42;9.30;99.90
21627;DHT22;10975;47.872;12.972;2023-04-02T02:40:45;9.30;99.90
21627;DHT22;10975;47.872;12.972;2023-04-02T02:43:13;9.30;99.90
21627;DHT22;10975;47.872;12.972;2023-04-02T02:45:42;9.30;99.90
21627;DHT22;10975;47.872;12.972;2023-04-02T02:48:14;9.30;99.90
21627;DHT22;10975;47.872;12.972;2023-04-02T02:50:41;9.20;99.90
21627;DHT22;10975;47.872;12.972;2023-04-02T02:53:27;9.20;99.90
21627;DHT22;10975;47.872;12.972;2023-04-02T02:55:55;9.20;99.90
21627;DHT22;10975;47.872;12.972;2023-04-02T02:58:27;9.20;99.90
21627;DHT22;10975;47.872;12.972;2023-04-02T03:00:56;9.20;99.90
21627;DHT22;10975;47.872;12.972;2023-04-02T03:03:25;9.20;99.90
21627;DHT22;10975;47.872;12.972;2023-04-02T03:05:57;9.20;99.90
21627;DHT22;10975;47.872;12.972;2023-04-02T03:08:51;9.20;99.90
21627;DHT22;10975;47.872;12.972;2023-04-02T03:11:23;9.20;99.90
21627;DHT22;10975;47.872;12.972;2023-04-02T03:13:52;9.30;99.90
21627;DHT22;10975;47.872;12.972;2023-04-02T03:16:27;9.30;99.90
21627;DHT22;10975;47.872;12.972;2023-04-02T03:19:01;9.20;99.90
21627;DHT22;10975;47.872;12.972;2023-04-02T03:23:58;9.30;99.90
21627;DHT22;10975;47.872;12.972;2023-04-02T03:29:17;9.50;99.90
21627;DHT22;10975;47.872;12.972;2023-04-02T03:32:28;9.50;99.90
21627;DHT22;10975;47.872;12.972;2023-04-02T03:34:36;9.50;99.90
21627;DHT22;10975;47.872;12.972;2023-04-02T03:39:35;9.60;99.90
21627;DHT22;10975;47.872;12.972;2023-04-02T03:42:06;9.70;99.90
21627;DHT22;10975;47.872;12.972;2023-04-02T03:44:35;9.70;99.90
21627;DHT22;10975;47.872;12.972;2023-04-02T03:47:04;9.60;99.90
21627;DHT22;10975;47.872;12.972;2023-04-02T03:52:34;9.60;99.90
21627;DHT22;10975;47.872;12.972;2023-04-02T03:55:07;9.50;99.90
21627;DHT22;10975;47.872;12.972;2023-04-02T03:57:46;9.50;99.90
21627;DHT22;10975;47.872;12.972;2023-04-02T04:00:23;9.50;99.90
21627;DHT22;10975;47.872;12.972;2023-04-02T04:02:52;9.40;99.90
21627;DHT22;10975;47.872;12.972;2023-04-02T04:07:50;9.50;99.90
21627;DHT22;10975;47.872;12.972;2023-04-02T04:10:21;9.60;99.90
21627;DHT22;10975;47.872;12.972;2023-04-02T04:12:49;9.40;99.90
21627;DHT22;10975;47.872;12.972;2023-04-02T04:17:52;9.50;99.90
21627;DHT22;10975;47.872;12.972;2023-04-02T04:20:23;9.40;99.90
21627;DHT22;10975;47.872;12.972;2023-04-02T04:22:50;9.40;99.90
21627;DHT22;10975;47.872;12.972;2023-04-02T04:25:25;9.50;99.90
21627;DHT22;10975;47.872;12.972;2023-04-02T04:27:57;9.40;99.90
21627;DHT22;10975;47.872;12.972;2023-04-02T04:30:33;9.40;99.90
21627;DHT22;10975;47.872;12.972;2023-04-02T04:33:10;9.40;99.90
21627;DHT22;10975;47.872;12.972;2023-04-02T04:35:42;9.40;99.90
21627;DHT22;10975;47.872;12.972;2023-04-02T04:38:12;9.40;99.90
21627;DHT22;10975;47.872;12.972;2023-04-02T04:40:44;9.60;99.90
21627;DHT22;10975;47.872;12.972;2023-04-02T04:43:19;9.60;99.90
21627;DHT22;10975;47.872;12.972;2023-04-02T04:45:55;9.50;99.90
21627;DHT22;10975;47.872;12.972;2023-04-02T04:49:07;9.40;99.90
21627;DHT22;10975;47.872;12.972;2023-04-02T04:53:47;9.40;99.90
21627;DHT22;10975;47.872;12.972;2023-04-02T04:56:19;9.50;99.90
21627;DHT22;10975;47.872;12.972;2023-04-02T05:01:47;9.40;99.90
21627;DHT22;10975;47.872;12.972;2023-04-02T05:09:33;9.40;99.90
21627;DHT22;10975;47.872;12.972;2023-04-02T05:14:53;9.30;99.90
21627;DHT22;10975;47.872;12.972;2023-04-02T05:17:27;9.40;99.90
21627;DHT22;10975;47.872;12.972;2023-04-02T05:27:32;9.40;99.90
21627;DHT22;10975;47.872;12.972;2023-04-02T05:30:07;9.40;99.90
21627;DHT22;10975;47.872;12.972;2023-04-02T05:32:36;9.40;99.90
21627;DHT22;10975;47.872;12.972;2023-04-02T05:35:09;9.40;99.90
21627;DHT22;10975;47.872;12.972;2023-04-02T05:37:40;9.30;99.90
21627;DHT22;10975;47.872;12.972;2023-04-02T05:40:18;9.30;99.90
21627;DHT22;10975;47.872;12.972;2023-04-02T05:42:47;9.30;99.90
21627;DHT22;10975;47.872;12.972;2023-04-02T05:45:25;9.40;99.90
21627;DHT22;10975;47.872;12.972;2023-04-02T05:47:54;9.50;99.90
21627;DHT22;10975;47.872;12.972;2023-04-02T05:50:34;9.50;99.90
21627;DHT22;10975;47.872;12.972;2023-04-02T05:53:07;9.40;99.90
21627;DHT22;10975;47.872;12.972;2023-04-02T05:55:37;9.20;99.90
21627;DHT22;10975;47.872;12.972;2023-04-02T05:58:11;9.20;99.90
21627;DHT22;10975;47.872;12.972;2023-04-02T06:03:43;9.20;99.90
21627;DHT22;10975;47.872;12.972;2023-04-02T06:06:20;9.20;99.90
21627;DHT22;10975;47.872;12.972;2023-04-02T06:08:53;9.30;99.90
21627;DHT22;10975;47.872;12.972;2023-04-02T06:11:25;9.30;99.90
21627;DHT22;10975;47.872;12.972;2023-04-02T06:13:54;9.20;99.90
21627;DHT22;10975;47.872;12.972;2023-04-02T06:16:22;9.20;99.90
21627;DHT22;10975;47.872;12.972;2023-04-02T06:18:50;9.10;99.90
21627;DHT22;10975;47.872;12.972;2023-04-02T06:21:17;9.10;99.90
21627;DHT22;10975;47.872;12.972;2023-04-02T06:23:49;9.10;99.90
21627;DHT22;10975;47.872;12.972;2023-04-02T06:29:04;9.10;99.90
21627;DHT22;10975;47.872;12.972;2023-04-02T06:31:37;9.10;99.90
21627;DHT22;10975;47.872;12.972;2023-04-02T06:34:06;9.10;99.90
21627;DHT22;10975;47.872;12.972;2023-04-02T06:36:36;9.10;99.90
21627;DHT22;10975;47.872;12.972;2023-04-02T06:39:04;9.10;99.90
21627;DHT22;10975;47.872;12.972;2023-04-02T06:41:32;9.10;99.90
21627;DHT22;10975;47.872;12.972;2023-04-02T06:44:01;9.10;99.90
21627;DHT22;10975;47.872;12.972;2023-04-02T06:46:34;9.10;99.90
21627;DHT22;10975;47.872;12.972;2023-04-02T06:49:05;9.10;99.90
21627;DHT22;10975;47.872;12.972;2023-04-02T06:51:34;9.10;99.90
21627;DHT22;10975;47.872;12.972;2023-04-02T06:54:01;9.20;99.90
21627;DHT22;10975;47.872;12.972;2023-04-02T06:59:14;9.10;99.90
21627;DHT22;10975;47.872;12.972;2023-04-02T07:01:50;9.10;99.90
21627;DHT22;10975;47.872;12.972;2023-04-02T07:04:18;9.20;99.90
21627;DHT22;10975;47.872;12.972;2023-04-02T07:06:46;9.20;99.90
21627;DHT22;10975;47.872;12.972;2023-04-02T07:09:13;9.40;99.90
21627;DHT22;10975;47.872;12.972;2023-04-02T07:11:39;9.20;99.90
21627;DHT22;10975;47.872;12.972;2023-04-02T07:14:08;9.20;99.90
21627;DHT22;10975;47.872;12.972;2023-04-02T07:16:34;9.10;99.90
21627;DHT22;10975;47.872;12.972;2023-04-02T07:19:02;9.10;99.90
21627;DHT22;10975;47.872;12.972;2023-04-02T07:21:29;9.10;99.90
21627;DHT22;10975;47.872;12.972;2023-04-02T07:23:56;9.20;99.90
21627;DHT22;10975;47.872;12.972;2023-04-02T07:26:24;9.30;99.90
21627;DHT22;10975;47.872;12.972;2023-04-02T07:28:55;9.20;99.90
21627;DHT22;10975;47.872;12.972;2023-04-02T07:31:23;9.20;99.90
21627;DHT22;10975;47.872;12.972;2023-04-02T07:33:52;9.30;99.90
21627;DHT22;10975;47.872;12.972;2023-04-02T07:36:20;9.30;99.90
21627;DHT22;10975;47.872;12.972;2023-04-02T07:38:47;9.30;99.90
21627;DHT22;10975;47.872;12.972;2023-04-02T07:41:14;9.30;99.90
21627;DHT22;10975;47.872;12.972;2023-04-02T07:43:41;9.30;99.90
21627;DHT22;10975;47.872;12.972;2023-04-02T07:46:08;9.30;99.90
21627;DHT22;10975;47.872;12.972;2023-04-02T07:48:35;9.40;99.90
21627;DHT22;10975;47.872;12.972;2023-04-02T07:51:02;9.50;99.90
21627;DHT22;10975;47.872;12.972;2023-04-02T07:53:30;9.50;99.90
21627;DHT22;10975;47.872;12.972;2023-04-02T07:55:58;9.50;99.90
21627;DHT22;10975;47.872;12.972;2023-04-02T07:58:26;9.60;99.90
21627;DHT22;10975;47.872;12.972;2023-04-02T08:00:53;9.60;99.90
21627;DHT22;10975;47.872;12.972;2023-04-02T08:03:20;9.60;99.90
21627;DHT22;10975;47.872;12.972;2023-04-02T08:05:54;9.60;99.90
21627;DHT22;10975;47.872;12.972;2023-04-02T08:08:22;9.80;99.90
21627;DHT22;10975;47.872;12.972;2023-04-02T08:10:51;9.90;99.90
21627;DHT22;10975;47.872;12.972;2023-04-02T08:13:17;9.90;99.90
21627;DHT22;10975;47.872;12.972;2023-04-02T08:15:44;10.10;99.90
21627;DHT22;10975;47.872;12.972;2023-04-02T08:18:11;10.20;99.90
21627;DHT22;10975;47.872;12.972;2023-04-02T08:20:37;10.30;99.90
21627;DHT22;10975;47.872;12.972;2023-04-02T08:23:11;10.40;99.90
21627;DHT22;10975;47.872;12.972;2023-04-02T08:25:38;10.40;99.90
21627;DHT22;10975;47.872;12.972;2023-04-02T08:28:05;10.50;99.90
21627;DHT22;10975;47.872;12.972;2023-04-02T08:30:33;10.60;99.90
21627;DHT22;10975;47.872;12.972;2023-04-02T08:33:00;10.60;99.90
21627;DHT22;10975;47.872;12.972;2023-04-02T08:35:26;10.70;99.90
21627;DHT22;10975;47.872;12.972;2023-04-02T08:37:55;10.80;99.90
21627;DHT22;10975;47.872;12.972;2023-04-02T08:40:31;11.00;99.90
21627;DHT22;10975;47.872;12.972;2023-04-02T08:45:44;11.10;99.90
21627;DHT22;10975;47.872;12.972;2023-04-02T08:48:18;11.30;99.90
21627;DHT22;10975;47.872;12.972;2023-04-02T08:50:52;11.40;99.90
21627;DHT22;10975;47.872;12.972;2023-04-02T08:53:20;11.20;99.90
21627;DHT22;10975;47.872;12.972;2023-04-02T08:55:55;11.10;99.90
21627;DHT22;10975;47.872;12.972;2023-04-02T09:00:53;11.20;99.90
21627;DHT22;10975;47.872;12.972;2023-04-02T09:03:30;11.30;99.90
21627;DHT22;10975;47.872;12.972;2023-04-02T09:05:59;11.30;99.90
21627;DHT22;10975;47.872;12.972;2023-04-02T09:08:27;11.40;99.90
21627;DHT22;10975;47.872;12.972;2023-04-02T09:10:59;11.40;99.90
21627;DHT22;10975;47.872;12.972;2023-04-02T09:13:28;11.40;99.90
21627;DHT22;10975;47.872;12.972;2023-04-02T09:15:57;11.40;99.90
21627;DHT22;10975;47.872;12.972;2023-04-02T09:18:29;11.40;99.90
21627;DHT22;10975;47.872;12.972;2023-04-02T09:20:57;11.50;99.90
21627;DHT22;10975;47.872;12.972;2023-04-02T09:23:24;11.60;99.90
21627;DHT22;10975;47.872;12.972;2023-04-02T09:25:59;11.70;99.90
21627;DHT22;10975;47.872;12.972;2023-04-02T09:28:30;11.50;99.90
21627;DHT22;10975;47.872;12.972;2023-04-02T09:36:19;11.60;99.90
21627;DHT22;10975;47.872;12.972;2023-04-02T09:38:58;11.60;99.90
21627;DHT22;10975;47.872;12.972;2023-04-02T09:41:27;11.50;99.90
21627;DHT22;10975;47.872;12.972;2023-04-02T09:46:47;11.90;99.90
21627;DHT22;10975;47.872;12.972;2023-04-02T09:49:14;11.90;99.90
21627;DHT22;10975;47.872;12.972;2023-04-02T09:51:41;11.90;99.90
21627;DHT22;10975;47.872;12.972;2023-04-02T09:54:14;12.10;99.90
21627;DHT22;10975;47.872;12.972;2023-04-02T09:56:58;12.10;99.90
21627;DHT22;10975;47.872;12.972;2023-04-02T09:59:26;11.90;99.90
21627;DHT22;10975;47.872;12.972;2023-04-02T10:04:36;11.70;99.90
21627;DHT22;10975;47.872;12.972;2023-04-02T10:07:05;11.60;99.90
21627;DHT22;10975;47.872;12.972;2023-04-02T10:09:36;11.80;99.90
21627;DHT22;10975;47.872;12.972;2023-04-02T10:12:04;12.00;99.90
21627;DHT22;10975;47.872;12.972;2023-04-02T10:14:36;11.80;99.90
21627;DHT22;10975;47.872;12.972;2023-04-02T10:21:59;11.90;99.90
21627;DHT22;10975;47.872;12.972;2023-04-02T10:24:28;11.90;99.90
21627;DHT22;10975;47.872;12.972;2023-04-02T10:29:42;11.80;99.90
21627;DHT22;10975;47.872;12.972;2023-04-02T10:32:30;11.60;99.90
21627;DHT22;10975;47.872;12.972;2023-04-02T10:35:01;11.70;99.90
21627;DHT22;10975;47.872;12.972;2023-04-02T10:37:40;11.60;99.90
21627;DHT22;10975;47.872;12.972;2023-04-02T10:40:10;11.50;99.90
21627;DHT22;10975;47.872;12.972;2023-04-02T10:43:29;11.40;99.90
21627;DHT22;10975;47.872;12.972;2023-04-02T10:50:36;11.70;99.90
21627;DHT22;10975;47.872;12.972;2023-04-02T10:55:32;11.40;99.90
21627;DHT22;10975;47.872;12.972;2023-04-02T10:58:06;11.40;99.90
21627;DHT22;10975;47.872;12.972;2023-04-02T11:00:36;11.40;99.90
21627;DHT22;10975;47.872;12.972;2023-04-02T11:06:01;11.60;99.90
21627;DHT22;10975;47.872;12.972;2023-04-02T11:13:56;11.60;99.90
21627;DHT22;10975;47.872;12.972;2023-04-02T11:16:23;11.50;99.90
21627;DHT22;10975;47.872;12.972;2023-04-02T11:21:37;11.70;99.90
21627;DHT22;10975;47.872;12.972;2023-04-02T11:29:40;11.20;99.90
21627;DHT22;10975;47.872;12.972;2023-04-02T11:32:24;10.90;99.90
21627;DHT22;10975;47.872;12.972;2023-04-02T11:40:00;10.40;99.90
21627;DHT22;10975;47.872;12.972;2023-04-02T11:42:30;10.30;99.90
21627;DHT22;10975;47.872;12.972;2023-04-02T11:50:32;10.10;99.90
21627;DHT22;10975;47.872;12.972;2023-04-02T11:55:36;10.20;99.90
21627;DHT22;10975;47.872;12.972;2023-04-02T12:05:39;10.50;99.90
21627;DHT22;10975;47.872;12.972;2023-04-02T12:08:11;10.50;99.90
21627;DHT22;10975;47.872;12.972;2023-04-02T12:13:18;10.50;99.90
21627;DHT22;10975;47.872;12.972;2023-04-02T12:15:46;10.50;99.90
21627;DHT22;10975;47.872;12.972;2023-04-02T12:18:24;10.60;99.90
21627;DHT22;10975;47.872;12.972;2023-04-02T12:20:52;10.50;99.90
21627;DHT22;10975;47.872;12.972;2023-04-02T12:23:25;10.60;99.90
21627;DHT22;10975;47.872;12.972;2023-04-02T12:25:56;10.70;99.90
21627;DHT22;10975;47.872;12.972;2023-04-02T12:28:24;10.80;99.90
21627;DHT22;10975;47.872;12.972;2023-04-02T12:31:04;10.90;99.90
21627;DHT22;10975;47.872;12.972;2023-04-02T12:33:37;10.70;99.90
21627;DHT22;10975;47.872;12.972;2023-04-02T12:36:21;10.70;99.90
21627;DHT22;10975;47.872;12.972;2023-04-02T12:38:55;10.80;99.90
21627;DHT22;10975;47.872;12.972;2023-04-02T12:41:27;10.90;99.90
21627;DHT22;10975;47.872;12.972;2023-04-02T12:43:56;10.90;99.90
21627;DHT22;10975;47.872;12.972;2023-04-02T12:46:24;10.90;99.90
21627;DHT22;10975;47.872;12.972;2023-04-02T12:48:57;10.70;99.90
21627;DHT22;10975;47.872;12.972;2023-04-02T12:51:26;10.70;99.90
21627;DHT22;10975;47.872;12.972;2023-04-02T12:53:53;10.60;99.90
21627;DHT22;10975;47.872;12.972;2023-04-02T12:56:21;10.60;99.90
21627;DHT22;10975;47.872;12.972;2023-04-02T12:58:52;10.40;99.90
21627;DHT22;10975;47.872;12.972;2023-04-02T13:01:23;10.50;99.90
21627;DHT22;10975;47.872;12.972;2023-04-02T13:06:26;10.70;99.90
21627;DHT22;10975;47.872;12.972;2023-04-02T13:08:52;10.80;99.90
21627;DHT22;10975;47.872;12.972;2023-04-02T13:11:20;10.80;99.90
21627;DHT22;10975;47.872;12.972;2023-04-02T13:13:48;10.80;99.90
21627;DHT22;10975;47.872;12.972;2023-04-02T13:18:44;10.80;99.90
21627;DHT22;10975;47.872;12.972;2023-04-02T13:23:47;10.90;99.90
21627;DHT22;10975;47.872;12.972;2023-04-02T13:31:22;10.70;99.90
21627;DHT22;10975;47.872;12.972;2023-04-02T13:33:49;10.80;99.90
21627;DHT22;10975;47.872;12.972;2023-04-02T13:36:16;10.80;99.90
21627;DHT22;10975;47.872;12.972;2023-04-02T13:38:42;10.80;99.90
21627;DHT22;10975;47.872;12.972;2023-04-02T13:41:17;10.80;99.90
21627;DHT22;10975;47.872;12.972;2023-04-02T13:43:44;10.80;99.90
21627;DHT22;10975;47.872;12.972;2023-04-02T13:46:15;10.70;99.90
21627;DHT22;10975;47.872;12.972;2023-04-02T13:48:43;10.70;99.90
21627;DHT22;10975;47.872;12.972;2023-04-02T13:51:21;10.70;99.90
21627;DHT22;10975;47.872;12.972;2023-04-02T13:53:48;10.60;99.90
21627;DHT22;10975;47.872;12.972;2023-04-02T13:56:16;10.60;99.90
21627;DHT22;10975;47.872;12.972;2023-04-02T13:58:51;10.70;99.90
21627;DHT22;10975;47.872;12.972;2023-04-02T14:01:18;10.60;99.90
21627;DHT22;10975;47.872;12.972;2023-04-02T14:03:46;10.60;99.90
21627;DHT22;10975;47.872;12.972;2023-04-02T14:14:15;10.50;99.90
21627;DHT22;10975;47.872;12.972;2023-04-02T14:24:10;10.40;99.90
21627;DHT22;10975;47.872;12.972;2023-04-02T14:31:54;10.30;99.90
21627;DHT22;10975;47.872;12.972;2023-04-02T14:34:32;10.30;99.90
21627;DHT22;10975;47.872;12.972;2023-04-02T14:37:05;10.30;99.90
21627;DHT22;10975;47.872;12.972;2023-04-02T14:39:41;10.30;99.90
21627;DHT22;10975;47.872;12.972;2023-04-02T14:42:16;10.30;99.90
21627;DHT22;10975;47.872;12.972;2023-04-02T14:44:51;10.30;99.90
21627;DHT22;10975;47.872;12.972;2023-04-02T14:47:30;10.30;99.90
21627;DHT22;10975;47.872;12.972;2023-04-02T14:50:02;10.40;99.90
21627;DHT22;10975;47.872;12.972;2023-04-02T14:52:32;10.40;99.90
21627;DHT22;10975;47.872;12.972;2023-04-02T14:55:01;10.50;99.90
21627;DHT22;10975;47.872;12.972;2023-04-02T14:57:29;10.60;99.90
21627;DHT22;10975;47.872;12.972;2023-04-02T14:59:58;10.60;99.90
21627;DHT22;10975;47.872;12.972;2023-04-02T15:05:00;10.50;99.90
21627;DHT22;10975;47.872;12.972;2023-04-02T15:07:36;10.40;99.90
21627;DHT22;10975;47.872;12.972;2023-04-02T15:12:32;10.20;99.90
21627;DHT22;10975;47.872;12.972;2023-04-02T15:17:33;10.10;99.90
21627;DHT22;10975;47.872;12.972;2023-04-02T15:20:08;10.10;99.90
21627;DHT22;10975;47.872;12.972;2023-04-02T15:22:40;10.10;99.90
21627;DHT22;10975;47.872;12.972;2023-04-02T15:25:12;10.10;99.90
21627;DHT22;10975;47.872;12.972;2023-04-02T15:30:28;10.10;99.90
21627;DHT22;10975;47.872;12.972;2023-04-02T15:32:56;10.00;99.90
21627;DHT22;10975;47.872;12.972;2023-04-02T15:35:30;9.80;99.90
21627;DHT22;10975;47.872;12.972;2023-04-02T15:46:06;9.70;99.90
21627;DHT22;10975;47.872;12.972;2023-04-02T15:51:35;9.60;99.90
21627;DHT22;10975;47.872;12.972;2023-04-02T16:01:35;9.60;99.90
21627;DHT22;10975;47.872;12.972;2023-04-02T16:09:25;9.50;99.90
21627;DHT22;10975;47.872;12.972;2023-04-02T16:11:54;9.50;99.90
21627;DHT22;10975;47.872;12.972;2023-04-02T16:14:23;9.50;99.90
21627;DHT22;10975;47.872;12.972;2023-04-02T16:16:52;9.50;99.90
21627;DHT22;10975;47.872;12.972;2023-04-02T16:22:04;9.40;99.90
21627;DHT22;10975;47.872;12.972;2023-04-02T16:24:32;9.40;99.90
21627;DHT22;10975;47.872;12.972;2023-04-02T16:37:17;9.60;99.90
21627;DHT22;10975;47.872;12.972;2023-04-02T16:39:52;9.50;99.90
21627;DHT22;10975;47.872;12.972;2023-04-02T16:48:42;9.30;99.90
21627;DHT22;10975;47.872;12.972;2023-04-02T16:58:48;9.50;99.90
21627;DHT22;10975;47.872;12.972;2023-04-02T17:04:07;9.30;99.90
21627;DHT22;10975;47.872;12.972;2023-04-02T17:11:40;9.10;99.90
21627;DHT22;10975;47.872;12.972;2023-04-02T17:14:21;9.10;99.90
21627;DHT22;10975;47.872;12.972;2023-04-02T17:16:52;8.90;99.90
21627;DHT22;10975;47.872;12.972;2023-04-02T17:19:22;8.80;99.90
21627;DHT22;10975;47.872;12.972;2023-04-02T17:21:50;8.70;99.90
21627;DHT22;10975;47.872;12.972;2023-04-02T17:29:42;8.60;99.90
21627;DHT22;10975;47.872;12.972;2023-04-02T17:32:26;8.60;99.90
21627;DHT22;10975;47.872;12.972;2023-04-02T17:34:55;8.60;99.90
21627;DHT22;10975;47.872;12.972;2023-04-02T17:43:04;8.50;99.90
21627;DHT22;10975;47.872;12.972;2023-04-02T17:50:50;8.40;99.90
21627;DHT22;10975;47.872;12.972;2023-04-02T17:53:38;8.40;99.90
21627;DHT22;10975;47.872;12.972;2023-04-02T18:01:38;8.40;99.90
21627;DHT22;10975;47.872;12.972;2023-04-02T18:06:45;8.20;99.90
21627;DHT22;10975;47.872;12.972;2023-04-02T18:09:19;8.20;99.90
21627;DHT22;10975;47.872;12.972;2023-04-02T18:19:22;8.10;99.90
21627;DHT22;10975;47.872;12.972;2023-04-02T18:27:59;8.00;99.90
21627;DHT22;10975;47.872;12.972;2023-04-02T18:33:06;8.00;99.90
21627;DHT22;10975;47.872;12.972;2023-04-02T18:35:42;7.90;99.90
21627;DHT22;10975;47.872;12.972;2023-04-02T18:48:27;7.90;99.90
21627;DHT22;10975;47.872;12.972;2023-04-02T18:50:56;7.80;99.90
21627;DHT22;10975;47.872;12.972;2023-04-02T18:53:24;7.70;99.90
21627;DHT22;10975;47.872;12.972;2023-04-02T18:56:10;7.80;99.90
21627;DHT22;10975;47.872;12.972;2023-04-02T19:01:06;7.80;99.90
21627;DHT22;10975;47.872;12.972;2023-04-02T19:03:35;7.80;99.90
21627;DHT22;10975;47.872;12.972;2023-04-02T19:06:19;7.80;99.90
21627;DHT22;10975;47.872;12.972;2023-04-02T19:08:49;7.80;99.90
21627;DHT22;10975;47.872;12.972;2023-04-02T19:11:17;7.80;99.90
21627;DHT22;10975;47.872;12.972;2023-04-02T19:13:44;7.70;99.90
21627;DHT22;10975;47.872;12.972;2023-04-02T19:16:39;7.70;99.90
21627;DHT22;10975;47.872;12.972;2023-04-02T19:26:40;7.60;99.90
21627;DHT22;10975;47.872;12.972;2023-04-02T19:36:54;7.30;99.90
21627;DHT22;10975;47.872;12.972;2023-04-02T19:42:00;7.00;99.90
21627;DHT22;10975;47.872;12.972;2023-04-02T19:44:28;7.00;99.90
21627;DHT22;10975;47.872;12.972;2023-04-02T19:46:55;7.00;99.90
21627;DHT22;10975;47.872;12.972;2023-04-02T19:49:27;6.90;99.90
21627;DHT22;10975;47.872;12.972;2023-04-02T19:51:54;6.80;99.90
21627;DHT22;10975;47.872;12.972;2023-04-02T19:54:22;6.80;99.90
21627;DHT22;10975;47.872;12.972;2023-04-02T19:56:49;6.80;99.90
21627;DHT22;10975;47.872;12.972;2023-04-02T19:59:15;6.70;99.90
21627;DHT22;10975;47.872;12.972;2023-04-02T20:01:45;6.70;99.90
21627;DHT22;10975;47.872;12.972;2023-04-02T20:04:12;6.60;99.90
21627;DHT22;10975;47.872;12.972;2023-04-02T20:06:39;6.60;99.90
21627;DHT22;10975;47.872;12.972;2023-04-02T20:09:06;6.50;99.90
21627;DHT22;10975;47.872;12.972;2023-04-02T20:11:34;6.50;99.90
21627;DHT22;10975;47.872;12.972;2023-04-02T20:14:02;6.50;99.90
21627;DHT22;10975;47.872;12.972;2023-04-02T20:16:29;6.40;99.90
21627;DHT22;10975;47.872;12.972;2023-04-02T20:18:57;6.40;99.90
21627;DHT22;10975;47.872;12.972;2023-04-02T20:21:24;6.40;99.90
21627;DHT22;10975;47.872;12.972;2023-04-02T20:23:55;6.40;99.90
21627;DHT22;10975;47.872;12.972;2023-04-02T20:26:21;6.40;99.90
21627;DHT22;10975;47.872;12.972;2023-04-02T20:28:48;6.40;99.90
21627;DHT22;10975;47.872;12.972;2023-04-02T20:31:16;6.30;99.90
21627;DHT22;10975;47.872;12.972;2023-04-02T20:33:43;6.40;99.90
21627;DHT22;10975;47.872;12.972;2023-04-02T20:36:12;6.30;99.90
21627;DHT22;10975;47.872;12.972;2023-04-02T20:38:39;6.20;99.90
21627;DHT22;10975;47.872;12.972;2023-04-02T20:41:06;6.20;99.90
21627;DHT22;10975;47.872;12.972;2023-04-02T20:46:03;6.20;99.90
21627;DHT22;10975;47.872;12.972;2023-04-02T20:48:31;6.10;99.90
21627;DHT22;10975;47.872;12.972;2023-04-02T20:50:58;6.10;99.90
21627;DHT22;10975;47.872;12.972;2023-04-02T20:53:44;6.10;99.90
21627;DHT22;10975;47.872;12.972;2023-04-02T20:56:13;6.10;99.90
21627;DHT22;10975;47.872;12.972;2023-04-02T20:58:40;6.00;99.90
21627;DHT22;10975;47.872;12.972;2023-04-02T21:01:09;6.00;99.90
21627;DHT22;10975;47.872;12.972;2023-04-02T21:03:36;5.90;99.90
21627;DHT22;10975;47.872;12.972;2023-04-02T21:06:05;6.00;99.90
21627;DHT22;10975;47.872;12.972;2023-04-02T21:08:32;5.90;99.90